Flight Track Log - Related Links

Times and Time Zones

All times are in EDT time to prevent confusion due to time zone crossing. See the UAL538 flight status page for this flight to view local times or setup timezone preferences in your user account.

Time Position Orientation Groundspeed Altitude Reporting Facility
EDT Latitude Longitude Course Direction KTS MPH feet Rate Location/Type
Tue 07:14:30 PM 33.4333 -112.0333 20° North 258 297 2,000  Level Phoenix TRACON
Tue 07:16:06 PM 33.4339 -112.1269 270° West 212 244 3,700 1,899 Climbing Albuquerque Center
Tue 07:17:08 PM 33.4656 -112.1925 300° West 255 293 7,000 3,048 Climbing Albuquerque Center
Tue 07:18:00 PM 33.8617 -111.8158 20° North  Level FlightAware Approximate
Tue 07:18:10 PM 33.5322 -112.1528 26° Northeast 278 320 10,000  Level Albuquerque Center
Tue 07:19:00 PM 33.9690 -111.7689 20° North  Level FlightAware Approximate
Tue 07:19:11 PM 33.6106 -112.0933 32° Northeast 347 399 11,400  Level Albuquerque Center
Tue 07:20:13 PM 33.7142 -112.0064 35° Northeast 379 436 15,700 3,629 Climbing Albuquerque Center
Tue 07:21:15 PM 33.8047 -111.9336 34° Northeast 389 448 18,900 2,878 Climbing Albuquerque Center
Tue 07:22:16 PM 33.9064 -111.8494 34° Northeast 405 466 21,600 2,780 Climbing Albuquerque Center
Tue 07:23:18 PM 34.0053 -111.7667 35° Northeast 430 495 24,600 1,984 Climbing Albuquerque Center
Tue 07:24:20 PM 34.1100 -111.7031 27° Northeast 428 493 25,700 927 Climbing Albuquerque Center
Tue 07:25:21 PM 34.2303 -111.6589 17° North 448 516 26,500 878 Climbing Albuquerque Center
Tue 07:26:23 PM 34.3522 -111.6114 18° North 457 526 27,500 919 Climbing Albuquerque Center
Tue 07:27:25 PM 34.4731 -111.5631 18° North 458 527 28,400 1,122 Climbing Albuquerque Center
Tue 07:28:26 PM 34.5864 -111.4761 32° Northeast 479 551 29,800 1,220 Climbing Albuquerque Center
Tue 07:29:28 PM 34.6753 -111.3467 50° Northeast 492 566 30,900 976 Climbing Albuquerque Center
Tue 07:30:29 PM 34.7656 -111.2194 49° Northeast 497 572 31,800 976 Climbing Albuquerque Center
Tue 07:31:31 PM 34.8739 -111.0644 50° Northeast 500 575 32,900 726 Climbing Albuquerque Center
Tue 07:32:33 PM 34.9661 -110.9344 49° Northeast 506 582 33,300 634 Climbing Albuquerque Center
Tue 07:33:34 PM 35.0572 -110.8014 50° Northeast 510 587 34,200 829 Climbing Albuquerque Center
Tue 07:34:36 PM 35.1536 -110.6594 50° Northeast 500 575 35,000 390 Climbing Albuquerque Center
Tue 07:35:37 PM 35.2456 -110.5469 45° Northeast 491 565 35,000  Level Albuquerque Center
Tue 07:36:39 PM 35.3533 -110.4133 45° Northeast 492 566 35,000  Level Albuquerque Center
Tue 07:37:40 PM 35.4458 -110.3006 45° Northeast 491 565 35,000  Level Albuquerque Center
Tue 07:38:42 PM 35.5369 -110.1836 46° Northeast 494 568 35,000  Level Albuquerque Center
Tue 07:39:43 PM 35.6442 -110.0483 46° Northeast 493 567 35,000  Level Albuquerque Center
Tue 07:40:45 PM 35.7358 -109.9336 45° Northeast 493 567 35,000  Level Albuquerque Center
Tue 07:41:46 PM 35.8425 -109.7978 46° Northeast 493 567 35,000 49 Level Albuquerque Center
Tue 07:42:48 PM 35.9344 -109.6794 46° Northeast 496 571 35,100 67 Climbing Albuquerque Center
Tue 07:43:15 PM 35.9800 -109.6214 46° Northeast 499 574 35,100 -67 Level Denver Center
Tue 07:44:17 PM 36.0719 -109.5025 46° Northeast 497 572 35,000 -48 Descending Denver Center
Tue 07:45:19 PM 36.1803 -109.3647 46° Northeast 497 572 35,000  Level Denver Center
Tue 07:46:21 PM 36.2733 -109.2428 47° Northeast 502 578 35,000  Level Denver Center
Tue 07:47:23 PM 36.3678 -109.1219 46° Northeast 504 580 35,000  Level Denver Center
Tue 07:48:25 PM 36.4758 -108.9786 47° Northeast 504 580 35,000  Level Denver Center
Tue 07:49:28 PM 36.5694 -108.8572 46° Northeast 504 580 35,000  Level Denver Center
Tue 07:50:30 PM 36.6731 -108.7192 47° Northeast 487 560 35,000  Level Denver Center
Tue 07:51:32 PM 36.7608 -108.6044 46° Northeast 478 550 35,000  Level Denver Center
Tue 07:52:34 PM 36.8631 -108.4686 47° Northeast 480 552 35,000  Level Denver Center
Tue 07:53:36 PM 36.9503 -108.3539 46° Northeast 475 547 35,000 -242 Level Denver Center
Tue 07:54:38 PM 37.0528 -108.2167 47° Northeast 481 554 34,500 -677 Descending Denver Center
Tue 07:55:40 PM 37.1419 -108.0981 47° Northeast 489 563 33,600 -726 Descending Denver Center
Tue 07:56:42 PM 37.2297 -107.9808 47° Northeast 483 556 33,000 -290 Descending Denver Center
Tue 07:57:44 PM 37.3278 -107.8481 47° Northeast 468 539 33,000  Level Denver Center
Tue 07:58:46 PM 37.4144 -107.7303 47° Northeast 475 547 33,000 48 Level Denver Center
Tue 07:59:48 PM 37.5175 -107.5911 47° Northeast 485 558 33,100 48 Climbing Denver Center
Tue 08:00:50 PM 37.6047 -107.4697 48° Northeast 488 562 33,100 -48 Level Denver Center
Tue 08:01:52 PM 37.7072 -107.3297 47° Northeast 484 557 33,000 -48 Descending Denver Center
Tue 08:02:54 PM 37.7914 -107.2128 48° Northeast 474 545 33,000  Level Denver Center
Tue 08:03:56 PM 37.8842 -107.0861 47° Northeast 462 532 33,000  Level Denver Center
Tue 08:04:58 PM 37.9819 -106.9494 48° Northeast 469 540 33,000  Level Denver Center
Tue 08:06:00 PM 38.0633 -106.8336 48° Northeast 463 533 33,000  Level Denver Center
Tue 08:07:02 PM 38.1478 -106.7181 47° Northeast 466 536 33,000  Level Denver Center
Tue 08:08:04 PM 38.2447 -106.5839 47° Northeast 461 531 33,000  Level Denver Center
Tue 08:09:06 PM 38.3314 -106.4775 44° Northeast 465 535 33,000  Level Denver Center
Tue 08:10:08 PM 38.4242 -106.3606 45° Northeast 470 541 33,000 -97 Level Denver Center
Tue 08:11:10 PM 38.5367 -106.2206 44° Northeast 470 541 32,800 -532 Descending Denver Center
Tue 08:12:12 PM 38.6325 -106.1006 44° Northeast 465 535 31,900 -968 Descending Denver Center
Tue 08:13:14 PM 38.7256 -105.9839 44° Northeast 464 534 30,800 -1,645 Descending Denver Center
Tue 08:14:16 PM 38.8178 -105.8658 45° Northeast 466 536 28,500 -2,226 Descending Denver Center
Tue 08:15:18 PM 38.9092 -105.7508 44° Northeast 446 513 26,200 -2,032 Descending Denver Center
Tue 08:16:20 PM 38.9903 -105.6467 45° Northeast 435 501 24,300 -1,935 Descending Denver Center
Tue 08:17:22 PM 39.0803 -105.5325 45° Northeast 412 474 22,200 -1,742 Descending Denver Center
Tue 08:18:24 PM 39.1625 -105.4281 45° Northeast 407 468 20,700 -1,452 Descending Denver Center
Tue 08:19:26 PM 39.2406 -105.3264 45° Northeast 370 426 19,200 -1,306 Descending Denver Center
Tue 08:20:28 PM 39.2767 -105.2106 68° East 364 419 18,000 -1,306 Descending Denver Center
Tue 08:21:30 PM 39.2989 -105.0911 76° East 348 400 16,500 -1,645 Descending Denver Center
Tue 08:22:32 PM 39.3217 -104.9653 77° East 340 391 14,600 -1,258 Descending Denver Center
Tue 08:23:34 PM 39.3408 -104.8675 76° East 289 333 13,900 -774 Descending Denver Center
Tue 08:24:36 PM 39.3656 -104.7686 72° East 269 310 13,000 -581 Descending Denver Center
Tue 08:25:38 PM 39.4022 -104.6867 60° Northeast 272 313 12,700 -435 Descending Denver Center
Tue 08:26:40 PM 39.4681 -104.6661 14° North 235 270 12,100 -532 Descending Denver Center
Tue 08:27:42 PM 39.5325 -104.6644 North 234 269 11,600 -1,016 Descending Denver Center
Tue 08:28:44 PM 39.6006 -104.6631 North 229 264 10,000 -1,065 Descending Denver Center
Tue 08:29:46 PM 39.6639 -104.6619 North 228 262 9,400 -683 Descending Denver Center
Tue 08:30:47 PM 39.7150 -104.6617 360° North 179 206 8,600 -1,268 Descending Denver Center
Tue 08:31:49 PM 39.7656 -104.6611 360° North 170 196 6,800 -1,306 Descending Denver Center
Tue 08:32:51 PM 39.8075 -104.6606 North 152 175 5,900 -677 Descending Denver Center
Tue 08:33:53 PM 39.8469 -104.6617 359° North 143 165 5,400 -484 Descending Denver Center

Login

Don't have an account? Register now (free) for customized features, flight alerts, and more!